Time;durP1;ratioP1;P1;durP2;ratioP2;P2;SDS_P1;SDS_P2;PMS_P1;PMS_P2;Temp;Humidity;BMP_temperature;BMP_pressure;BME280_temperature;BME280_humidity;BME280_pressure;Samples;Min_cycle;Max_cycle;Signal;HPM_P1;HPM_P2
2021/11/16 00:02:19;;;;;;;65.47;33.23;;;;;;;5.54;96.01;100183.37;4168365;84;21023;-82
2021/11/16 00:08:21;;;;;;;75.05;34.05;;;;;;;5.57;96.17;100182.75;4162800;84;21067;-82
2021/11/16 00:14:22;;;;;;;56.42;28.87;;;;;;;5.51;95.75;100182.64;4142231;84;21072;-82
2021/11/16 00:20:24;;;;;;;66.25;32.88;;;;;;;5.44;96.07;100176.30;4159228;84;21164;-81
2021/11/16 00:26:26;;;;;;;58.73;31.10;;;;;;;5.41;95.93;100185.08;4177583;84;21100;-82
2021/11/16 00:32:27;;;;;;;60.63;29.20;;;;;;;5.37;95.91;100175.16;4171459;85;21114;-82
2021/11/16 00:38:29;;;;;;;55.17;28.42;;;;;;;5.35;96.01;100157.81;4177695;84;22026;-81
2021/11/16 00:44:30;;;;;;;58.10;29.07;;;;;;;5.31;95.72;100163.61;4147144;84;21025;-82
2021/11/16 00:50:34;;;;;;;55.28;28.12;;;;;;;5.20;95.61;100168.28;4162238;84;22101;-82
2021/11/16 00:56:35;;;;;;;59.83;30.17;;;;;;;5.08;95.64;100166.67;4209099;83;21053;-82
2021/11/16 01:02:37;;;;;;;60.08;31.07;;;;;;;4.90;95.70;100169.05;4168074;84;21048;-82
2021/11/16 01:08:38;;;;;;;55.90;28.47;;;;;;;4.79;95.81;100170.63;4221611;83;21074;-82
2021/11/16 01:14:40;;;;;;;57.00;30.72;;;;;;;4.73;95.59;100173.77;4219672;83;21555;-81
2021/11/16 01:20:42;;;;;;;53.87;28.92;;;;;;;4.62;95.70;100175.94;4196901;83;21059;-82
2021/11/16 01:26:46;;;;;;;58.68;29.02;;;;;;;4.55;95.76;100195.09;4194257;84;21617;-82
2021/11/16 01:32:52;;;;;;;60.20;30.52;;;;;;;4.42;95.67;100190.51;4204583;83;21597;-82
2021/11/16 01:38:55;;;;;;;63.83;32.50;;;;;;;4.33;95.93;100187.73;4209839;84;21095;-81
2021/11/16 01:51:07;;;;;;;64.17;30.60;;;;;;;4.35;96.34;100184.72;4666690;74;22305;-82
2021/11/16 01:57:09;;;;;;;55.98;28.30;;;;;;;4.30;96.34;100180.76;4584533;75;20995;-82
2021/11/16 02:03:13;;;;;;;54.77;26.95;;;;;;;4.29;96.38;100189.44;4579162;75;21006;-82
2021/11/16 02:09:17;;;;;;;58.40;29.60;;;;;;;4.37;96.87;100183.30;4588578;75;21031;-82
2021/11/16 02:15:19;;;;;;;56.15;28.38;;;;;;;4.42;96.88;100191.86;4567569;75;20994;-82
2021/11/16 02:21:20;;;;;;;50.45;24.75;;;;;;;4.45;96.85;100200.20;4580789;75;21049;-82
2021/11/16 02:27:21;;;;;;;56.18;28.98;;;;;;;4.54;97.16;100192.16;4593109;75;21023;-82
2021/11/16 02:33:23;;;;;;;62.27;32.83;;;;;;;4.59;97.18;100191.47;4578009;75;22242;-82
2021/11/16 02:39:25;;;;;;;68.87;35.45;;;;;;;4.65;97.03;100184.03;4605219;75;21900;-82
2021/11/16 02:45:26;;;;;;;65.17;34.08;;;;;;;4.66;96.92;100193.75;4576111;75;21049;-83
2021/11/16 02:51:34;;;;;;;57.08;29.75;;;;;;;4.68;96.98;100181.48;4589142;75;21574;-82
2021/11/16 02:57:36;;;;;;;59.18;31.10;;;;;;;4.69;96.87;100174.97;4594984;75;21050;-83
2021/11/16 03:03:40;;;;;;;59.90;30.72;;;;;;;4.68;96.64;100173.34;4573185;75;21049;-82
2021/11/16 03:09:50;;;;;;;54.83;29.63;;;;;;;4.66;96.61;100177.48;4586900;75;21035;-82
2021/11/16 03:15:51;;;;;;;54.98;26.90;;;;;;;4.62;96.83;100162.37;4573637;75;21012;-83
2021/11/16 03:21:55;;;;;;;54.15;28.20;;;;;;;4.62;96.53;100165.08;4575955;75;21527;-82
2021/11/16 03:28:01;;;;;;;56.23;28.98;;;;;;;4.60;96.75;100156.45;4570190;75;21595;-82
2021/11/16 03:33:59;;;;;;;56.65;29.67;;;;;;;4.65;96.97;100160.98;4580484;75;20988;-81
2021/11/16 03:40:01;;;;;;;55.05;29.05;;;;;;;4.67;96.80;100157.38;4593107;75;21047;-82
2021/11/16 03:46:03;;;;;;;50.15;26.80;;;;;;;4.56;96.56;100154.11;4604377;75;21051;-82
2021/11/16 03:52:05;;;;;;;45.52;24.52;;;;;;;4.57;96.95;100154.35;4568252;75;21032;-82
2021/11/16 03:58:07;;;;;;;50.30;26.65;;;;;;;4.58;96.62;100144.31;4568914;75;20997;-82
2021/11/16 04:04:11;;;;;;;48.42;26.50;;;;;;;4.55;96.70;100144.93;4575982;75;20971;-82
2021/11/16 04:10:12;;;;;;;50.98;25.57;;;;;;;4.55;96.76;100148.45;4594921;75;21534;-82
2021/11/16 04:16:13;;;;;;;53.10;26.82;;;;;;;4.60;96.83;100137.46;4587624;75;21258;-82
2021/11/16 04:22:14;;;;;;;53.05;26.70;;;;;;;4.64;96.68;100139.02;4599357;75;21046;-82
2021/11/16 04:28:16;;;;;;;45.35;25.92;;;;;;;4.63;96.77;100140.94;4583170;75;21880;-83
2021/11/16 04:34:18;;;;;;;46.80;24.27;;;;;;;4.64;96.73;100135.75;4574830;75;21012;-82
2021/11/16 04:40:28;;;;;;;43.95;23.30;;;;;;;4.63;96.61;100135.52;4593553;75;20959;-82
2021/11/16 04:46:27;;;;;;;41.92;23.10;;;;;;;4.62;96.60;100142.58;4575507;75;21598;-83
2021/11/16 05:04:51;;;;;;;41.35;22.67;;;;;;;4.59;96.46;100163.53;4590015;75;21546;-82
2021/11/16 05:10:52;;;;;;;47.85;23.40;;;;;;;4.54;96.36;100159.61;4606175;75;21026;-82
2021/11/16 05:16:54;;;;;;;58.73;28.75;;;;;;;4.55;96.49;100155.78;4594250;75;21047;-83
2021/11/16 05:22:56;;;;;;;68.22;32.42;;;;;;;4.51;96.37;100161.58;4592954;75;21044;-82
2021/11/16 05:28:59;;;;;;;67.97;33.28;;;;;;;4.48;96.48;100163.52;4589534;75;21093;-83
2021/11/16 05:35:00;;;;;;;53.38;26.70;;;;;;;4.31;96.43;100166.90;4607893;75;20991;-83
2021/11/16 05:41:02;;;;;;;46.15;25.40;;;;;;;4.27;96.45;100170.53;4619680;75;21473;-82
2021/11/16 05:47:04;;;;;;;44.23;22.77;;;;;;;4.20;96.58;100167.42;4580806;75;21650;-82
2021/11/16 05:53:09;;;;;;;42.93;21.73;;;;;;;4.18;96.65;100162.87;4554997;76;22531;-82
2021/11/16 05:59:10;;;;;;;47.93;22.80;;;;;;;4.18;96.61;100160.16;4550907;76;21007;-82
2021/11/16 06:05:12;;;;;;;43.28;23.40;;;;;;;4.22;97.03;100166.56;4559937;76;20955;-83
2021/11/16 06:11:13;;;;;;;40.10;21.48;;;;;;;4.31;96.96;100170.16;4540156;75;21074;-82
2021/11/16 06:17:14;;;;;;;40.58;21.33;;;;;;;4.20;96.74;100166.88;4546315;76;21050;-83
2021/11/16 06:23:15;;;;;;;40.35;21.87;;;;;;;4.26;96.86;100173.78;4555773;76;21031;-83
2021/11/16 06:29:17;;;;;;;41.58;21.05;;;;;;;4.18;96.55;100191.33;4554092;76;21006;-83
2021/11/16 06:35:20;;;;;;;40.92;22.00;;;;;;;4.05;96.60;100188.08;4556063;76;20987;-83
2021/11/16 06:41:21;;;;;;;46.30;22.22;;;;;;;4.07;97.11;100196.72;4538585;76;21007;-83
2021/11/16 06:47:22;;;;;;;39.05;20.35;;;;;;;4.18;97.02;100202.17;4544175;76;21055;-83
2021/11/16 06:53:30;;;;;;;40.12;21.30;;;;;;;4.26;96.89;100202.81;4563117;76;21355;-82
2021/11/16 06:59:31;;;;;;;42.58;22.40;;;;;;;4.30;96.81;100210.58;4520908;76;21049;-82
2021/11/16 07:05:33;;;;;;;65.62;31.45;;;;;;;4.24;96.42;100205.02;4492074;77;21082;-82
2021/11/16 07:11:48;;;;;;;66.20;32.65;;;;;;;4.15;96.40;100199.50;4469245;76;21033;-82
2021/11/16 07:17:49;;;;;;;70.08;35.23;;;;;;;4.13;96.58;100215.83;4481150;76;20966;-82
2021/11/16 07:24:09;;;;;;;66.15;33.38;;;;;;;4.22;96.87;100208.03;4487298;77;20987;-82
2021/11/16 07:30:23;;;;;;;63.10;34.65;;;;;;;4.23;96.68;100208.27;4523891;76;21067;-83
2021/11/16 07:36:23;;;;;;;58.55;29.90;;;;;;;4.28;96.74;100217.66;4504412;76;20994;-83
2021/11/16 07:42:29;;;;;;;46.63;24.98;;;;;;;4.28;96.46;100215.48;4477814;76;20979;-82
2021/11/16 07:48:33;;;;;;;46.33;25.33;;;;;;;4.17;96.50;100224.40;4496593;76;21091;-83
2021/11/16 07:54:34;;;;;;;53.63;26.75;;;;;;;4.02;96.73;100227.44;4478136;77;20990;-83
2021/11/16 08:00:41;;;;;;;50.20;25.60;;;;;;;3.90;96.90;100227.69;4483622;77;21049;-83
2021/11/16 08:06:51;;;;;;;48.65;25.60;;;;;;;3.99;97.15;100223.98;4496193;76;20989;-83
2021/11/16 08:12:48;;;;;;;53.52;26.27;;;;;;;3.99;97.15;100223.98;4497772;76;21030;-83
2021/11/16 08:19:05;;;;;;;55.88;25.92;;;;;;;4.01;96.94;100217.68;4472654;77;20986;-82
2021/11/16 08:25:04;;;;;;;55.83;27.40;;;;;;;4.02;97.09;100211.17;4331821;80;21904;-83
2021/11/16 08:31:11;;;;;;;49.90;26.27;;;;;;;3.97;97.44;100218.05;4484327;77;21573;-83
2021/11/16 08:37:14;;;;;;;36.23;18.53;;;;;;;3.95;97.52;100221.60;4321691;77;25223;-83
2021/11/16 08:43:17;;;;;;;57.50;26.33;;;;;;;3.99;97.54;100219.09;4262704;82;21434;-83
2021/11/16 08:49:31;;;;;;;62.62;27.82;;;;;;;4.02;97.96;100215.24;4175813;83;21348;-83
2021/11/16 08:55:33;;;;;;;56.92;27.65;;;;;;;4.07;97.99;100217.05;4140222;84;21078;-83
2021/11/16 09:01:35;;;;;;;62.38;27.90;;;;;;;4.08;98.08;100209.96;4137877;84;21041;-82
2021/11/16 09:07:36;;;;;;;69.55;32.20;;;;;;;4.13;98.20;100199.02;4133190;84;21054;-83
2021/11/16 09:13:38;;;;;;;65.95;29.70;;;;;;;4.25;98.20;100201.20;4133852;84;21049;-82
2021/11/16 09:19:40;;;;;;;59.90;29.25;;;;;;;4.26;98.21;100198.75;4156755;83;21796;-84
2021/11/16 09:25:41;;;;;;;63.05;29.60;;;;;;;4.31;98.21;100194.00;4136341;84;21642;-83
2021/11/16 09:32:03;;;;;;;71.67;32.40;;;;;;;4.42;98.25;100196.74;4146052;83;22075;-83
2021/11/16 09:38:04;;;;;;;67.75;30.62;;;;;;;4.53;98.36;100185.91;4156626;83;21074;-83
2021/11/16 09:44:22;;;;;;;71.30;32.95;;;;;;;4.60;98.05;100182.78;4138417;83;21080;-83
2021/11/16 09:50:25;;;;;;;68.60;31.17;;;;;;;4.73;98.39;100170.52;4265870;81;48244;-82
2021/11/16 09:56:27;;;;;;;66.17;32.50;;;;;;;4.71;98.36;100170.02;4272128;82;21635;-82
2021/11/16 10:02:30;;;;;;;75.47;33.95;;;;;;;4.85;98.34;100173.47;4278515;82;20994;-82
2021/11/16 10:08:32;;;;;;;79.75;34.38;;;;;;;4.93;98.12;100171.13;4282493;82;21022;-83
2021/11/16 10:14:33;;;;;;;75.92;34.92;;;;;;;4.94;98.14;100167.30;4275322;82;21596;-83
2021/11/16 10:20:39;;;;;;;82.88;36.25;;;;;;;4.97;98.26;100163.42;4282009;82;21081;-82
2021/11/16 10:26:40;;;;;;;93.27;38.45;;;;;;;5.02;98.10;100154.34;4271699;81;21033;-82
2021/11/16 10:32:46;;;;;;;95.03;37.08;;;;;;;5.00;98.14;100149.23;4271852;82;21010;-83
2021/11/16 10:38:57;;;;;;;92.97;35.23;;;;;;;5.06;98.19;100139.84;4270273;82;20994;-82
2021/11/16 10:44:59;;;;;;;78.50;34.35;;;;;;;5.13;98.28;100141.57;4275258;82;21077;-82
2021/11/16 10:51:07;;;;;;;83.07;37.28;;;;;;;5.13;98.02;100137.50;4293200;81;21053;-83
2021/11/16 10:57:09;;;;;;;91.78;39.48;;;;;;;5.14;98.13;100134.23;4313215;80;21464;-82
2021/11/16 11:03:30;;;;;;;86.53;39.15;;;;;;;5.25;98.24;100128.21;4292483;81;21081;-82
2021/11/16 11:09:32;;;;;;;84.17;35.25;;;;;;;5.35;98.01;100123.06;4324967;80;21499;-83
2021/11/16 11:15:34;;;;;;;89.67;40.10;;;;;;;5.36;97.90;100113.80;4252240;81;21066;-82
2021/11/16 11:21:55;;;;;;;92.80;41.20;;;;;;;5.45;97.81;100114.07;4251824;82;21749;-82
2021/11/16 11:28:00;;;;;;;94.35;41.33;;;;;;;5.39;97.86;100110.45;4234587;82;21038;-82
2021/11/16 11:34:00;;;;;;;90.12;41.08;;;;;;;5.40;97.86;100106.64;4313110;80;20990;-82
2021/11/16 11:40:13;;;;;;;100.78;45.55;;;;;;;5.46;97.86;100093.97;4299273;80;21593;-82
2021/11/16 11:46:14;;;;;;;93.72;42.50;;;;;;;5.48;97.61;100085.50;4288453;81;21077;-82
2021/11/16 11:52:16;;;;;;;100.50;44.90;;;;;;;5.55;97.55;100071.70;4308225;81;21105;-82
2021/11/16 11:58:21;;;;;;;97.85;42.85;;;;;;;5.54;97.27;100072.83;4290363;81;21418;-83
2021/11/16 12:04:23;;;;;;;101.00;43.87;;;;;;;5.58;97.41;100072.42;4309041;81;21055;-82
2021/11/16 12:10:24;;;;;;;91.57;40.28;;;;;;;5.55;96.72;100053.23;4313065;80;21029;-83
2021/11/16 12:17:00;;;;;;;87.97;38.55;;;;;;;5.54;97.19;100046.22;4300313;81;21009;-83
2021/11/16 12:23:10;;;;;;;87.55;39.60;;;;;;;5.63;96.68;100035.61;4302399;81;21759;-84
2021/11/16 12:29:16;;;;;;;88.35;39.48;;;;;;;5.65;96.97;100040.18;4297667;81;21041;-82
2021/11/16 12:35:20;;;;;;;85.38;38.10;;;;;;;5.67;96.71;100031.71;4300355;81;21526;-83
2021/11/16 12:41:33;;;;;;;92.45;39.27;;;;;;;5.59;96.66;100018.33;4240383;82;21125;-82
2021/11/16 12:47:38;;;;;;;91.47;39.78;;;;;;;5.63;96.53;100015.79;4162374;84;21068;-83
2021/11/16 12:54:05;;;;;;;109.40;43.15;;;;;;;5.61;96.52;100005.80;4296448;80;21017;-83
2021/11/16 13:00:12;;;;;;;94.22;40.88;;;;;;;5.60;96.49;99986.00;4331077;80;21677;-84
2021/11/16 13:06:14;;;;;;;92.78;43.50;;;;;;;5.59;96.36;99976.81;4333736;80;21009;-84
2021/11/16 13:12:45;;;;;;;103.00;43.87;;;;;;;5.63;96.51;99972.33;4335581;80;21053;-83
2021/11/16 13:18:50;;;;;;;104.35;43.90;;;;;;;5.73;96.36;99967.95;4315124;80;21037;-83
2021/11/16 13:24:51;;;;;;;92.15;39.88;;;;;;;5.67;96.16;99959.72;4299984;80;21025;-83
2021/11/16 13:31:17;;;;;;;99.92;40.95;;;;;;;5.62;96.10;99960.66;4309473;81;21029;-83
2021/11/16 13:37:28;;;;;;;101.30;42.62;;;;;;;5.58;96.00;99951.55;4268964;81;21065;-82
2021/11/16 13:43:29;;;;;;;95.35;43.35;;;;;;;5.49;95.85;99954.83;4254884;82;21564;-81
2021/11/16 13:49:39;;;;;;;90.62;40.20;;;;;;;5.41;95.86;99947.47;4316453;81;21069;-82
2021/11/16 13:55:45;;;;;;;104.25;42.23;;;;;;;5.31;95.76;99938.84;4267935;81;21015;-81
2021/11/16 14:01:47;;;;;;;98.85;41.65;;;;;;;5.24;95.85;99934.42;4264444;81;21477;-82
2021/11/16 14:08:02;;;;;;;104.30;43.10;;;;;;;5.21;95.78;99930.98;4258574;81;21034;-81
2021/11/16 14:14:04;;;;;;;104.40;41.58;;;;;;;5.18;95.85;99935.70;4188766;83;21000;-82
2021/11/16 14:20:06;;;;;;;100.50;43.17;;;;;;;5.14;95.74;99941.53;4178865;82;21387;-82
2021/11/16 14:33:19;;;;;;;92.85;41.10;;;;;;;5.05;95.84;99935.26;4258947;81;21603;-83
2021/11/16 14:39:32;;;;;;;97.85;41.92;;;;;;;4.95;95.62;99938.28;4190720;82;20995;-82
2021/11/16 14:45:35;;;;;;;91.97;41.55;;;;;;;4.88;95.66;99927.08;4253954;81;20995;-82
2021/11/16 14:51:45;;;;;;;97.00;40.38;;;;;;;4.79;95.73;99925.13;4321497;80;21325;-83
2021/11/16 14:57:58;;;;;;;101.87;42.48;;;;;;;4.75;95.70;99922.00;4289661;81;21010;-82
2021/11/16 15:04:07;;;;;;;105.75;43.05;;;;;;;4.68;95.74;99909.47;4289492;81;21079;-82
2021/11/16 15:10:12;;;;;;;99.17;45.17;;;;;;;4.63;95.85;99908.25;4375228;80;21050;-82
2021/11/16 15:16:23;;;;;;;128.27;53.50;;;;;;;4.57;95.89;99900.02;4370300;80;21014;-83
2021/11/16 15:22:35;;;;;;;114.28;46.45;;;;;;;4.51;95.90;99900.70;4380757;80;21027;-82
2021/11/16 15:28:41;;;;;;;105.25;44.65;;;;;;;4.48;96.02;99905.39;4380318;80;21058;-82
2021/11/16 15:34:47;;;;;;;111.22;43.75;;;;;;;4.43;95.97;99895.26;4387692;80;21042;-82
2021/11/16 15:41:05;;;;;;;110.95;43.17;;;;;;;4.36;96.20;99898.96;4387946;80;21436;-83
2021/11/16 15:53:43;;;;;;;121.45;45.92;;;;;;;4.31;96.22;99889.05;4364745;80;21014;-82
2021/11/16 15:59:37;;;;;;;118.20;46.40;;;;;;;4.19;96.01;99887.49;4277110;82;21427;-82
2021/11/16 16:05:39;;;;;;;114.85;45.38;;;;;;;4.09;96.37;99888.30;4266951;82;21077;-82
2021/11/16 16:11:42;;;;;;;109.20;44.73;;;;;;;4.06;96.32;99882.95;4265474;82;21466;-82
2021/11/16 16:17:43;;;;;;;110.75;44.10;;;;;;;4.00;96.54;99880.67;4277486;82;21034;-81
2021/11/16 16:23:50;;;;;;;121.35;49.08;;;;;;;3.96;96.54;99880.48;4194394;83;21526;-82
2021/11/16 16:29:48;;;;;;;108.63;45.05;;;;;;;3.92;96.48;99867.33;4205333;82;21046;-81
2021/11/16 16:35:49;;;;;;;108.32;43.68;;;;;;;3.86;96.71;99862.35;4212342;83;21023;-82
2021/11/16 16:41:52;;;;;;;113.15;45.00;;;;;;;3.83;96.73;99863.78;4240523;83;21023;-82
2021/11/16 16:47:54;;;;;;;118.82;48.10;;;;;;;3.80;96.82;99859.53;4192733;84;21035;-82
2021/11/16 16:53:57;;;;;;;118.90;47.90;;;;;;;3.74;96.81;99859.42;4249514;83;21023;-82
2021/11/16 17:00:00;;;;;;;117.47;45.95;;;;;;;3.70;96.99;99848.39;4221510;82;21080;-82
2021/11/16 17:06:03;;;;;;;117.03;46.60;;;;;;;3.68;97.29;99841.70;4257282;83;21038;-81
2021/11/16 17:12:11;;;;;;;107.40;44.38;;;;;;;3.64;97.30;99833.94;4243855;83;21026;-82
